Time;durP1;ratioP1;P1;durP2;ratioP2;P2;SDS_P1;SDS_P2;PMS_P1;PMS_P2;Temp;Humidity;BMP_temperature;BMP_pressure;BME280_temperature;BME280_humidity;BME280_pressure;Samples;Min_cycle;Max_cycle;Signal;HPM_P1;HPM_P2
2022/04/04 00:00:57;;;;;;;15.95;10.00;;;;;;;8.73;54.62;99886.63;5053410;28;20021;-48
2022/04/04 00:03:22;;;;;;;14.02;9.60;;;;;;;8.96;53.07;99886.44;5053073;28;20407;-47
2022/04/04 00:05:48;;;;;;;14.38;9.52;;;;;;;8.35;55.05;99898.19;5052307;28;20352;-47
2022/04/04 00:08:14;;;;;;;13.63;9.75;;;;;;;8.56;54.33;99892.13;5052341;28;20469;-47
2022/04/04 00:10:39;;;;;;;15.13;10.05;;;;;;;8.77;53.72;99890.53;5053197;28;20512;-48
2022/04/04 00:13:05;;;;;;;16.70;10.18;;;;;;;8.40;54.59;99901.09;5052942;28;20104;-47
2022/04/04 00:15:30;;;;;;;15.25;9.77;;;;;;;8.13;55.48;99897.31;5052794;28;20106;-47
2022/04/04 00:17:56;;;;;;;15.85;9.95;;;;;;;8.35;54.74;99894.72;5052969;28;20135;-50
2022/04/04 00:20:22;;;;;;;14.23;9.82;;;;;;;7.93;55.75;99883.75;5053068;28;20029;-48
2022/04/04 00:22:48;;;;;;;15.63;9.65;;;;;;;7.99;55.62;99892.81;5053166;28;20091;-47
2022/04/04 00:25:14;;;;;;;14.98;9.73;;;;;;;8.08;55.80;99896.22;5053073;28;20033;-47
2022/04/04 00:27:40;;;;;;;13.50;9.60;;;;;;;8.08;55.69;99897.03;5052571;28;20028;-48
2022/04/04 00:30:06;;;;;;;13.48;9.50;;;;;;;8.32;55.15;99900.38;5052745;28;20029;-47
2022/04/04 00:32:31;;;;;;;14.52;9.35;;;;;;;8.54;54.32;99902.13;5052956;28;20479;-47
2022/04/04 00:35:00;;;;;;;14.48;9.40;;;;;;;8.27;55.05;99900.94;5052795;28;20461;-46
2022/04/04 00:37:26;;;;;;;13.93;8.88;;;;;;;8.40;54.85;99902.94;5052522;28;20032;-46
2022/04/04 00:39:51;;;;;;;12.18;9.00;;;;;;;7.81;55.81;99896.66;5052499;28;20013;-48
2022/04/04 00:42:17;;;;;;;11.35;8.27;;;;;;;7.95;55.57;99895.00;5052643;28;20025;-46
2022/04/04 00:44:45;;;;;;;15.10;8.70;;;;;;;7.78;56.01;99904.13;5052807;28;20021;-48
2022/04/04 00:47:11;;;;;;;12.63;8.82;;;;;;;8.14;55.01;99904.22;5052213;28;20024;-48
2022/04/04 00:49:37;;;;;;;12.20;8.45;;;;;;;8.49;54.21;99899.22;5052122;28;20032;-47
2022/04/04 00:52:02;;;;;;;13.27;7.90;;;;;;;8.52;53.96;99905.97;5052419;28;20025;-46
2022/04/04 00:54:28;;;;;;;12.25;8.68;;;;;;;8.27;54.36;99897.47;5052274;28;20139;-47
2022/04/04 00:56:55;;;;;;;13.10;9.05;;;;;;;8.56;54.28;99907.25;5052778;28;20024;-50
2022/04/04 00:59:21;;;;;;;12.77;8.25;;;;;;;8.82;53.82;99904.06;5051809;28;20024;-49
2022/04/04 01:01:46;;;;;;;11.63;8.02;;;;;;;8.50;54.67;99889.41;5052480;28;20036;-48
2022/04/04 01:04:13;;;;;;;11.70;8.20;;;;;;;8.57;54.92;99893.78;5052075;28;20020;-49
2022/04/04 01:06:39;;;;;;;11.40;7.82;;;;;;;8.53;55.40;99884.56;5052031;28;20053;-47
2022/04/04 01:09:05;;;;;;;10.52;7.72;;;;;;;8.48;55.76;99902.88;5051817;28;20029;-49
2022/04/04 01:11:31;;;;;;;10.20;7.47;;;;;;;8.25;56.65;99902.97;5051929;28;20025;-48
2022/04/04 01:13:57;;;;;;;12.10;8.23;;;;;;;8.27;56.27;99900.13;5051674;28;20053;-47
2022/04/04 01:16:23;;;;;;;10.02;7.15;;;;;;;8.36;55.81;99891.06;5052111;28;20020;-50
2022/04/04 01:18:49;;;;;;;10.52;7.72;;;;;;;8.12;56.43;99900.13;5051739;28;20401;-47
2022/04/04 01:21:20;;;;;;;12.23;7.78;;;;;;;8.29;56.89;99903.41;5051989;28;20485;-49
2022/04/04 01:23:49;;;;;;;11.10;7.82;;;;;;;8.16;57.39;99902.22;5051659;28;20021;-48
2022/04/04 01:26:14;;;;;;;11.13;7.70;;;;;;;8.51;55.60;99918.41;5051884;28;20207;-47
2022/04/04 01:28:40;;;;;;;11.43;8.13;;;;;;;8.86;54.82;99921.25;5051526;28;20505;-47
2022/04/04 01:31:07;;;;;;;10.30;7.50;;;;;;;8.33;55.25;99904.69;5051546;28;20025;-47
2022/04/04 01:33:33;;;;;;;11.55;8.00;;;;;;;8.40;55.57;99919.66;5051527;28;20060;-50
2022/04/04 01:35:58;;;;;;;11.38;8.07;;;;;;;8.22;55.80;99925.38;5051785;28;20052;-47
2022/04/04 01:38:25;;;;;;;10.82;7.50;;;;;;;8.13;56.01;99921.16;5051650;28;20163;-48
2022/04/04 01:40:51;;;;;;;9.57;7.03;;;;;;;8.01;55.20;99912.84;5051194;28;20074;-50
2022/04/04 01:43:17;;;;;;;11.23;7.90;;;;;;;8.52;54.43;99928.00;5051448;28;20021;-50
2022/04/04 01:48:26;;;;;;;10.25;7.40;;;;;;;8.52;54.00;99930.66;5051610;28;20025;-48
2022/04/04 01:50:52;;;;;;;10.50;7.38;;;;;;;8.33;54.39;99934.66;5051113;28;20025;-47
2022/04/04 01:53:27;;;;;;;11.15;7.82;;;;;;;8.57;53.36;99936.25;5050875;28;20025;-47
2022/04/04 01:55:54;;;;;;;10.70;7.43;;;;;;;8.34;53.74;99938.97;5051481;28;20095;-50
2022/04/04 01:58:20;;;;;;;10.40;7.57;;;;;;;8.25;54.77;99945.38;5051245;28;20021;-50
2022/04/04 02:00:46;;;;;;;10.50;7.57;;;;;;;8.48;53.78;99940.00;5051319;28;20075;-47
2022/04/04 02:03:12;;;;;;;12.60;7.57;;;;;;;8.55;54.44;99948.06;5050711;28;20032;-47
2022/04/04 02:05:38;;;;;;;11.63;8.05;;;;;;;8.56;54.43;99950.50;5051207;28;20021;-47
2022/04/04 02:08:03;;;;;;;11.75;8.20;;;;;;;8.29;54.69;99946.66;5050938;28;20049;-49
2022/04/04 02:10:29;;;;;;;12.05;8.20;;;;;;;8.34;55.31;99943.44;5051125;28;20029;-48
2022/04/04 02:12:54;;;;;;;12.35;8.23;;;;;;;8.63;54.09;99950.59;5050582;28;20534;-47
2022/04/04 02:15:20;;;;;;;13.10;8.63;;;;;;;8.33;54.13;99952.41;5050993;28;20024;-47
2022/04/04 02:17:45;;;;;;;12.90;8.80;;;;;;;8.52;53.04;99951.06;5050949;28;20117;-48
2022/04/04 02:20:11;;;;;;;11.50;8.25;;;;;;;8.26;52.65;99952.31;5050883;28;20017;-51
2022/04/04 02:22:37;;;;;;;11.20;7.85;;;;;;;8.34;52.34;99954.03;5050717;28;20071;-46
2022/04/04 02:25:03;;;;;;;11.52;8.43;;;;;;;8.25;53.21;99947.22;5050591;28;20103;-47
2022/04/04 02:27:29;;;;;;;12.98;8.30;;;;;;;8.19;52.69;99946.13;5050908;28;20024;-46
2022/04/04 02:29:55;;;;;;;12.65;8.30;;;;;;;8.14;52.24;99954.59;5049892;28;20036;-47
2022/04/04 02:32:20;;;;;;;12.45;8.30;;;;;;;7.90;51.62;99957.50;5050485;28;20558;-47
2022/04/04 02:34:46;;;;;;;11.95;7.53;;;;;;;8.09;50.16;99956.16;5050087;28;20108;-50
2022/04/04 02:37:13;;;;;;;10.77;6.90;;;;;;;8.08;50.36;99952.69;5050795;28;20021;-51
2022/04/04 02:39:38;;;;;;;10.45;7.30;;;;;;;8.17;49.89;99964.03;5050772;28;20021;-47
2022/04/04 02:42:04;;;;;;;10.93;7.55;;;;;;;7.92;49.92;99971.38;5050912;28;20036;-47
2022/04/04 02:44:30;;;;;;;12.15;7.50;;;;;;;7.57;51.11;99973.69;5050510;28;20021;-48
2022/04/04 02:46:55;;;;;;;9.75;7.22;;;;;;;8.04;50.19;99972.63;5050726;28;20464;-47
2022/04/04 02:49:21;;;;;;;12.77;7.90;;;;;;;7.85;50.81;99976.59;5050491;28;20029;-47
2022/04/04 02:51:46;;;;;;;12.57;7.32;;;;;;;7.86;49.91;99969.47;5050705;28;20049;-51
2022/04/04 02:54:12;;;;;;;11.07;7.50;;;;;;;8.02;49.77;99971.97;5050351;28;20029;-49
2022/04/04 02:56:41;;;;;;;15.25;7.38;;;;;;;7.81;50.05;99970.03;5050397;28;20028;-49
2022/04/04 02:59:08;;;;;;;10.53;6.73;;;;;;;8.13;48.72;99968.88;5050842;28;20451;-47
2022/04/04 03:01:34;;;;;;;10.40;6.47;;;;;;;7.75;49.23;99960.97;5050521;28;20266;-48
2022/04/04 03:04:00;;;;;;;11.10;7.07;;;;;;;7.63;49.57;99967.69;5050270;28;20104;-48
2022/04/04 03:06:26;;;;;;;13.73;7.50;;;;;;;7.56;50.12;99962.28;5050200;28;20077;-48
2022/04/04 03:08:52;;;;;;;9.95;7.07;;;;;;;7.37;50.39;99963.59;5050151;28;20381;-47
2022/04/04 03:11:18;;;;;;;9.13;6.68;;;;;;;7.43;50.33;99965.53;5050445;28;20535;-48
2022/04/04 03:13:44;;;;;;;10.55;6.90;;;;;;;7.05;51.28;99957.53;5050045;28;20033;-47
2022/04/04 03:16:09;;;;;;;10.25;6.85;;;;;;;6.99;51.25;99958.22;5050319;28;20415;-48
2022/04/04 03:18:35;;;;;;;38.63;19.15;;;;;;;7.17;51.07;99962.41;5050029;28;20070;-50
2022/04/04 03:21:03;;;;;;;9.93;7.25;;;;;;;7.15;50.93;99953.81;5050406;28;20045;-47
2022/04/04 03:23:29;;;;;;;13.75;8.52;;;;;;;7.20;50.92;99948.84;5050289;28;20115;-50
2022/04/04 03:25:54;;;;;;;11.68;7.32;;;;;;;7.38;50.66;99952.00;5050461;28;20048;-47
2022/04/04 03:28:20;;;;;;;10.77;7.30;;;;;;;7.33;50.74;99966.75;5050021;28;20033;-47
2022/04/04 03:30:47;;;;;;;12.27;8.13;;;;;;;7.38;51.71;99972.34;5050092;28;20036;-47
2022/04/04 03:33:12;;;;;;;13.73;8.27;;;;;;;7.64;52.68;99974.63;5049873;28;20021;-51
2022/04/04 03:35:37;;;;;;;11.55;8.32;;;;;;;7.52;52.52;99976.91;5049996;28;20029;-48
2022/04/04 03:38:04;;;;;;;13.32;8.13;;;;;;;7.33;52.97;99975.53;5049976;28;20021;-47
2022/04/04 03:40:31;;;;;;;11.63;8.15;;;;;;;7.35;53.46;99978.00;5050035;28;20052;-47
2022/04/04 03:42:58;;;;;;;11.07;7.95;;;;;;;6.90;54.45;99977.78;5053544;28;20393;-48
2022/04/04 03:45:24;;;;;;;12.10;8.38;;;;;;;6.97;53.65;99977.94;5053605;28;20028;-49
2022/04/04 03:47:50;;;;;;;10.52;7.28;;;;;;;7.02;53.04;99984.31;5053462;28;20021;-47
2022/04/04 03:50:17;;;;;;;9.43;6.68;;;;;;;6.99;52.27;99987.34;5053091;28;20028;-48
2022/04/04 03:52:45;;;;;;;10.52;7.32;;;;;;;7.17;51.64;99980.94;5053671;28;20025;-49
2022/04/04 03:55:12;;;;;;;9.63;6.70;;;;;;;7.38;53.09;99986.41;5053265;28;20043;-51
2022/04/04 03:57:38;;;;;;;9.82;6.45;;;;;;;7.07;51.57;99990.94;5053098;28;20025;-46
2022/04/04 04:00:05;;;;;;;10.63;6.38;;;;;;;7.13;50.45;99988.41;5052830;28;20028;-47
2022/04/04 04:02:34;;;;;;;12.18;6.90;;;;;;;7.03;50.89;99993.91;5051993;28;20243;-47
2022/04/04 04:05:00;;;;;;;10.18;6.47;;;;;;;7.22;50.78;99994.47;5053210;28;20028;-50
2022/04/04 04:07:26;;;;;;;10.85;6.07;;;;;;;7.32;49.95;100000.34;5052954;28;20052;-50
2022/04/04 04:09:52;;;;;;;9.35;6.32;;;;;;;7.50;48.88;99994.78;5051781;28;20477;-48
2022/04/04 04:12:18;;;;;;;9.75;6.07;;;;;;;7.44;48.59;99991.03;5053143;28;20082;-48
2022/04/04 04:14:43;;;;;;;8.85;6.10;;;;;;;7.68;48.66;99997.13;5052874;28;20448;-49
2022/04/04 04:17:09;;;;;;;10.20;5.22;;;;;;;7.76;47.68;100004.16;5052845;28;20480;-48
2022/04/04 04:22:21;;;;;;;7.68;5.47;;;;;;;8.06;46.75;100004.25;5042406;28;20056;-51
2022/04/04 04:24:48;;;;;;;9.95;5.47;;;;;;;8.44;45.64;100020.13;5033139;28;20029;-50
2022/04/04 04:27:14;;;;;;;9.05;5.93;;;;;;;8.51;45.66;100024.53;5033485;28;20024;-50
2022/04/04 04:29:40;;;;;;;8.55;5.53;;;;;;;8.91;45.47;100033.00;5033041;28;20025;-37
2022/04/04 04:32:07;;;;;;;11.40;6.13;;;;;;;9.42;44.23;100040.09;5032971;28;20047;-37
2022/04/04 04:34:34;;;;;;;11.30;5.97;;;;;;;9.23;43.62;100038.84;5033007;28;20025;-37
2022/04/04 04:37:00;;;;;;;9.15;5.93;;;;;;;9.48;43.53;100043.81;5034648;28;20024;-37
2022/04/04 04:39:25;;;;;;;7.88;5.65;;;;;;;9.58;42.69;100052.31;5046605;28;20385;-37
2022/04/04 04:41:50;;;;;;;8.30;5.35;;;;;;;9.46;43.46;100059.97;5035088;28;20029;-37
2022/04/04 04:44:16;;;;;;;8.80;5.53;;;;;;;10.18;42.60;100064.31;5047351;28;20453;-37
2022/04/04 04:46:41;;;;;;;8.73;5.22;;;;;;;10.29;41.40;100062.13;5053150;28;20020;-37
2022/04/04 04:49:07;;;;;;;8.73;5.40;;;;;;;9.76;42.44;100065.16;5052997;28;20444;-37
2022/04/04 04:51:33;;;;;;;11.85;7.22;;;;;;;10.02;41.44;100064.56;5051784;28;20044;-37
2022/04/04 04:53:58;;;;;;;12.07;7.72;;;;;;;10.35;42.01;100069.34;5048545;28;20025;-37
2022/04/04 04:56:25;;;;;;;8.45;5.80;;;;;;;10.17;41.74;100070.63;5049906;28;20021;-37
2022/04/04 04:58:52;;;;;;;8.15;5.22;;;;;;;10.13;40.99;100072.03;5049361;28;20036;-37
2022/04/04 05:01:18;;;;;;;8.90;5.93;;;;;;;10.80;39.81;100069.84;5049060;28;20040;-38
2022/04/04 05:03:43;;;;;;;6.95;4.90;;;;;;;10.26;40.66;100076.63;5048520;28;20374;-37
2022/04/04 05:06:08;;;;;;;14.50;8.43;;;;;;;9.67;41.89;100084.88;5049039;28;20137;-37
2022/04/04 05:08:34;;;;;;;13.73;8.80;;;;;;;9.97;41.20;100086.41;5050184;28;20078;-38
2022/04/04 05:11:00;;;;;;;7.20;4.93;;;;;;;9.68;41.77;100078.56;5050434;28;20021;-38
2022/04/04 05:13:26;;;;;;;10.38;5.13;;;;;;;9.83;41.32;100081.19;5050982;28;20025;-37
2022/04/04 05:15:54;;;;;;;8.93;4.88;;;;;;;9.53;41.89;100087.41;5051427;28;20024;-38
2022/04/04 05:18:20;;;;;;;7.93;5.25;;;;;;;9.95;42.25;100093.75;5051763;28;20108;-43
2022/04/04 05:20:46;;;;;;;6.47;5.20;;;;;;;10.21;41.83;100095.00;5051348;28;20039;-37
2022/04/04 05:23:13;;;;;;;8.13;4.93;;;;;;;10.84;40.20;100100.38;5051620;28;20021;-37
2022/04/04 05:25:39;;;;;;;7.40;4.60;;;;;;;10.77;39.31;100091.53;5051025;28;20043;-38
2022/04/04 05:28:07;;;;;;;6.80;4.82;;;;;;;10.82;39.87;100097.09;5051615;28;20024;-38
2022/04/04 05:30:34;;;;;;;6.78;4.90;;;;;;;10.83;39.29;100095.25;5051596;28;20086;-38
2022/04/04 05:32:59;;;;;;;5.90;4.78;;;;;;;10.90;38.78;100101.44;5051561;28;20492;-37
2022/04/04 05:35:25;;;;;;;5.60;4.50;;;;;;;11.41;38.38;100113.53;5051136;28;20024;-38
2022/04/04 05:37:54;;;;;;;6.60;4.80;;;;;;;11.54;37.65;100108.25;5051178;28;20028;-37
2022/04/04 05:40:24;;;;;;;7.10;4.93;;;;;;;12.07;36.58;100112.88;5051636;28;20021;-36
2022/04/04 05:42:49;;;;;;;;;;;;;;;12.83;35.90;100109.75;5052071;28;20029;-38
2022/04/04 05:45:16;;;;;;;7.15;4.82;;;;;;;13.33;36.05;100113.69;5051380;28;19909;-37
2022/04/04 05:47:42;;;;;;;8.02;4.88;;;;;;;13.58;34.72;100113.81;5051081;28;20072;-37
2022/04/04 05:50:08;;;;;;;6.13;4.55;;;;;;;13.53;33.68;100111.75;5050983;28;20118;-38
2022/04/04 05:52:35;;;;;;;8.85;5.10;;;;;;;13.97;33.43;100112.72;5051061;28;20032;-37
2022/04/04 05:55:02;;;;;;;6.32;4.80;;;;;;;14.27;33.22;100128.16;5051255;28;20021;-38
2022/04/04 05:57:35;;;;;;;9.07;4.93;;;;;;;14.30;32.95;100137.59;5050918;28;20052;-37
2022/04/04 06:00:00;;;;;;;7.05;5.15;;;;;;;15.03;32.42;100134.28;5051014;28;20460;-38
2022/04/04 06:02:28;;;;;;;9.07;5.07;;;;;;;15.55;31.45;100147.25;5051325;28;20029;-37
2022/04/04 06:04:56;;;;;;;8.25;5.38;;;;;;;15.43;31.33;100137.28;5049797;28;20051;-38
2022/04/04 06:07:21;;;;;;;8.07;5.88;;;;;;;14.89;31.11;100146.16;5050543;28;20049;-38
2022/04/04 06:09:47;;;;;;;24.00;15.63;;;;;;;14.87;31.98;100143.72;5050701;28;20091;-37
2022/04/04 06:12:13;;;;;;;7.57;5.60;;;;;;;14.59;32.48;100147.69;5050847;28;20025;-37
2022/04/04 06:14:38;;;;;;;10.57;6.03;;;;;;;14.18;32.40;100142.84;5050750;28;20024;-37
2022/04/04 06:17:07;;;;;;;14.68;8.55;;;;;;;13.15;34.58;100139.22;5051081;28;20029;-39
2022/04/04 06:19:34;;;;;;;8.65;5.72;;;;;;;14.26;33.69;100134.56;5050508;28;20047;-37
2022/04/04 06:22:00;;;;;;;7.93;5.60;;;;;;;14.51;32.91;100142.59;5050477;28;20029;-37
2022/04/04 06:24:25;;;;;;;21.33;14.10;;;;;;;15.49;31.49;100132.06;5050712;28;20021;-37
2022/04/04 06:26:51;;;;;;;15.75;9.98;;;;;;;15.75;30.86;100142.47;5050936;28;20376;-38
2022/04/04 06:29:16;;;;;;;12.50;6.22;;;;;;;16.30;29.85;100148.72;5050544;28;20029;-38
2022/04/04 06:31:41;;;;;;;7.68;5.60;;;;;;;16.67;29.77;100148.50;5051062;28;20024;-38
2022/04/04 06:34:10;;;;;;;6.65;5.35;;;;;;;15.60;30.52;100145.53;5050495;28;20025;-38
2022/04/04 06:36:37;;;;;;;7.75;5.28;;;;;;;16.10;30.85;100151.69;5050978;28;20028;-38
2022/04/04 06:39:03;;;;;;;11.68;5.30;;;;;;;15.53;30.04;100142.13;5050457;28;20025;-38
2022/04/04 06:41:30;;;;;;;10.23;4.90;;;;;;;16.38;29.70;100151.03;5050325;28;20035;-37
2022/04/04 06:43:56;;;;;;;6.28;4.80;;;;;;;15.72;29.47;100147.44;5050564;28;20033;-37
2022/04/04 06:46:22;;;;;;;6.03;4.70;;;;;;;16.15;29.83;100154.50;5050684;28;20147;-37
2022/04/04 06:48:50;;;;;;;8.98;4.95;;;;;;;16.07;29.02;100157.50;5050584;28;20104;-38
2022/04/04 06:51:19;;;;;;;6.55;4.95;;;;;;;16.53;29.02;100158.66;5050357;28;20029;-38
2022/04/04 06:53:45;;;;;;;7.40;4.90;;;;;;;16.51;28.07;100156.19;5050310;28;20021;-38
2022/04/04 06:56:11;;;;;;;5.35;4.60;;;;;;;15.99;28.65;100143.38;5050547;28;20021;-39
2022/04/04 06:58:37;;;;;;;6.57;4.88;;;;;;;16.45;28.08;100148.22;5050482;28;20109;-38
2022/04/04 07:01:03;;;;;;;7.63;5.13;;;;;;;16.72;27.84;100160.16;5050042;28;20036;-37
2022/04/04 07:03:29;;;;;;;6.53;4.65;;;;;;;15.70;28.96;100154.91;5050362;28;20041;-38
2022/04/04 07:05:54;;;;;;;7.60;4.65;;;;;;;15.71;28.57;100153.88;5050735;28;20484;-38
2022/04/04 07:08:20;;;;;;;9.57;5.00;;;;;;;16.04;28.98;100156.09;5050364;28;20060;-39
2022/04/04 07:10:46;;;;;;;8.18;4.93;;;;;;;15.35;29.74;100150.19;5050590;28;20033;-38
2022/04/04 07:13:12;;;;;;;8.38;4.97;;;;;;;14.87;30.70;100154.44;5049529;28;20055;-38
2022/04/04 07:15:38;;;;;;;11.05;6.50;;;;;;;15.52;29.40;100153.91;5049943;28;20025;-38
2022/04/04 07:18:03;;;;;;;8.93;5.28;;;;;;;15.83;29.00;100152.88;5053464;28;20056;-38
2022/04/04 07:20:29;;;;;;;9.32;5.30;;;;;;;16.47;29.10;100146.97;5053454;28;20098;-38
2022/04/04 07:22:55;;;;;;;7.20;5.43;;;;;;;16.07;29.33;100154.81;5052727;28;20036;-38
2022/04/04 07:25:22;;;;;;;6.18;5.13;;;;;;;15.15;30.54;100161.94;5052518;28;20144;-38
2022/04/04 07:27:48;;;;;;;5.97;4.82;;;;;;;15.48;29.75;100152.72;5053855;28;20099;-38
2022/04/04 07:30:17;;;;;;;8.88;5.30;;;;;;;16.02;29.46;100159.00;5053710;28;20113;-37
2022/04/04 07:32:43;;;;;;;7.90;4.93;;;;;;;16.24;29.05;100158.50;5053404;28;20101;-38
2022/04/04 07:35:11;;;;;;;10.43;5.30;;;;;;;16.44;29.08;100168.91;5052892;28;20025;-38
2022/04/04 07:37:39;;;;;;;8.32;5.32;;;;;;;14.73;31.39;100177.84;5053398;28;20029;-38
2022/04/04 07:40:06;;;;;;;6.73;5.17;;;;;;;15.51;30.90;100172.91;5053469;28;20044;-38
2022/04/04 07:42:32;;;;;;;7.97;5.20;;;;;;;15.02;32.02;100159.41;5053393;28;20082;-38
2022/04/04 07:44:58;;;;;;;6.75;5.15;;;;;;;15.70;30.46;100179.06;5052753;28;20112;-38
2022/04/04 07:47:24;;;;;;;7.30;5.15;;;;;;;16.03;30.20;100168.72;5053355;28;20025;-37
2022/04/04 07:49:49;;;;;;;8.48;5.45;;;;;;;15.94;30.43;100150.47;5052715;28;20566;-37
2022/04/04 07:52:15;;;;;;;7.45;5.50;;;;;;;16.33;29.26;100175.88;5052983;28;20025;-38
2022/04/04 07:54:40;;;;;;;7.00;5.07;;;;;;;15.84;30.67;100177.88;5053005;28;20057;-37
2022/04/04 07:57:06;;;;;;;7.82;5.40;;;;;;;16.60;29.60;100178.13;5053050;28;20094;-38
2022/04/04 07:59:31;;;;;;;7.63;4.95;;;;;;;17.70;28.83;100173.81;5053080;28;20468;-37
2022/04/04 08:01:57;;;;;;;7.32;5.35;;;;;;;17.10;28.86;100183.09;5052948;28;20075;-37
2022/04/04 08:04:22;;;;;;;5.80;4.95;;;;;;;17.31;29.35;100175.47;5052534;28;20159;-37
2022/04/04 08:06:48;;;;;;;9.93;5.07;;;;;;;17.52;28.20;100177.50;5051266;28;20099;-39
2022/04/04 08:09:14;;;;;;;7.63;5.07;;;;;;;17.81;28.21;100168.63;5053271;28;20032;-38
2022/04/04 08:11:39;;;;;;;5.47;4.55;;;;;;;18.24;27.18;100178.84;5052629;28;20029;-38
2022/04/04 08:14:08;;;;;;;6.07;4.80;;;;;;;18.62;26.35;100174.63;5052571;28;20033;-38
2022/04/04 08:16:34;;;;;;;7.63;4.60;;;;;;;18.28;26.84;100171.91;5052143;28;20017;-37
2022/04/04 08:18:59;;;;;;;7.10;4.85;;;;;;;18.83;26.28;100174.94;5052180;28;20020;-38
2022/04/04 08:21:26;;;;;;;5.63;4.50;;;;;;;18.93;25.74;100165.13;5052406;28;20017;-38
2022/04/04 08:23:52;;;;;;;5.43;4.40;;;;;;;19.20;25.68;100166.28;5052194;28;20512;-39
2022/04/04 08:26:18;;;;;;;7.63;4.95;;;;;;;19.05;25.65;100134.53;5052033;28;20059;-39
2022/04/04 08:28:43;;;;;;;5.85;4.53;;;;;;;17.53;27.75;100162.97;5051273;28;20397;-38
2022/04/04 08:31:09;;;;;;;5.18;4.35;;;;;;;16.82;28.92;100154.25;5051971;28;20036;-38
2022/04/04 08:33:34;;;;;;;4.45;3.70;;;;;;;16.21;29.24;100150.91;5051939;28;20021;-39
2022/04/04 08:36:03;;;;;;;5.88;4.40;;;;;;;15.86;29.80;100157.00;5051923;28;20021;-38
2022/04/04 08:38:29;;;;;;;6.25;4.47;;;;;;;15.40;30.50;100143.13;5051873;28;20104;-38
2022/04/04 08:40:58;;;;;;;7.75;4.60;;;;;;;15.38;31.53;100142.53;5051741;28;20032;-38
2022/04/04 08:43:27;;;;;;;5.28;4.10;;;;;;;15.97;29.34;100136.59;5051687;28;20070;-38
2022/04/04 08:45:54;;;;;;;4.90;4.40;;;;;;;15.84;30.09;100143.00;5052088;28;20040;-38
2022/04/04 08:48:19;;;;;;;6.63;4.50;;;;;;;15.38;31.32;100139.00;5051324;28;20031;-38
2022/04/04 08:50:45;;;;;;;7.75;4.50;;;;;;;15.22;30.90;100122.50;5051510;28;20029;-38
2022/04/04 08:53:11;;;;;;;10.02;4.63;;;;;;;16.49;30.12;100130.63;5051700;28;20017;-38
2022/04/04 08:55:37;;;;;;;8.05;4.70;;;;;;;16.67;29.66;100118.94;5051728;28;20461;-38
2022/04/04 08:58:03;;;;;;;5.75;4.72;;;;;;;15.70;31.21;100112.78;5051763;28;20032;-38
2022/04/04 09:00:29;;;;;;;6.53;4.20;;;;;;;15.91;31.54;100116.84;5052162;28;20429;-38
2022/04/04 09:03:04;;;;;;;5.95;4.60;;;;;;;16.29;31.04;100110.28;5051933;28;20155;-38
2022/04/04 09:05:53;;;;;;;5.80;4.00;;;;;;;16.54;30.22;100104.66;5051696;28;20091;-38
2022/04/04 09:08:20;;;;;;;6.63;4.10;;;;;;;16.63;29.90;100098.97;5051362;28;20041;-51
2022/04/04 09:10:46;;;;;;;5.03;4.10;;;;;;;16.31;30.14;100096.63;5051276;28;20064;-49
2022/04/04 09:13:15;;;;;;;6.25;4.53;;;;;;;16.36;29.86;100080.63;5051273;28;20017;-50
2022/04/04 09:15:55;;;;;;;5.20;4.20;;;;;;;17.02;29.29;100086.69;5046426;28;20025;-48
2022/04/04 09:18:36;;;;;;;5.07;4.22;;;;;;;16.80;28.92;100079.19;5049002;28;20021;-49
2022/04/04 09:21:12;;;;;;;6.63;4.28;;;;;;;16.46;29.91;100077.34;5048872;28;20040;-51
2022/04/04 09:23:48;;;;;;;5.18;3.53;;;;;;;16.58;28.61;100075.47;5051163;28;20373;-51
2022/04/04 09:26:30;;;;;;;5.13;3.40;;;;;;;17.27;28.29;100066.69;5050849;28;20033;-52
2022/04/04 09:29:02;;;;;;;4.85;3.70;;;;;;;16.61;28.53;100064.25;5050613;28;20073;-50
2022/04/04 09:31:28;;;;;;;4.60;3.70;;;;;;;16.22;29.57;100054.00;5049601;28;20066;-51
2022/04/04 09:33:58;;;;;;;4.93;3.53;;;;;;;16.88;28.38;100061.09;5048623;28;20025;-52
2022/04/04 09:36:24;;;;;;;4.05;3.45;;;;;;;18.15;27.33;100061.81;5050035;28;20104;-50
2022/04/04 09:39:03;;;;;;;4.00;3.33;;;;;;;17.70;27.40;100046.50;5049566;28;20100;-52
2022/04/04 09:41:30;;;;;;;5.10;3.53;;;;;;;17.28;27.29;100039.56;5049638;28;20151;-48
2022/04/04 09:43:58;;;;;;;4.32;3.72;;;;;;;18.43;26.88;100033.94;5049771;28;20025;-51
2022/04/04 09:46:31;;;;;;;5.45;3.53;;;;;;;18.55;25.96;100031.13;5050166;28;20150;-50
2022/04/04 09:49:04;;;;;;;5.28;4.13;;;;;;;17.53;27.55;100025.75;5049640;28;20024;-51
2022/04/04 09:51:40;;;;;;;5.97;3.80;;;;;;;17.62;28.23;100025.38;5049528;28;20031;-49
2022/04/04 09:54:08;;;;;;;4.95;3.50;;;;;;;18.01;27.16;100026.31;5049950;28;20051;-49
2022/04/04 09:56:33;;;;;;;4.68;3.35;;;;;;;17.49;27.14;100013.84;5050133;28;20028;-50
2022/04/04 09:59:02;;;;;;;4.95;3.85;;;;;;;16.71;29.32;100010.72;5049801;28;20021;-49
2022/04/04 10:01:30;;;;;;;4.13;3.63;;;;;;;17.53;28.55;100004.22;5049735;28;20025;-51
2022/04/04 10:03:57;;;;;;;6.18;3.70;;;;;;;17.66;27.71;100005.81;5049011;28;20456;-49
2022/04/04 10:06:27;;;;;;;4.93;3.85;;;;;;;17.19;28.04;100003.34;5049407;28;20132;-53
2022/04/04 10:08:56;;;;;;;5.78;3.90;;;;;;;17.35;27.97;100004.47;5049458;28;20477;-49
2022/04/04 10:11:23;;;;;;;7.82;4.15;;;;;;;18.76;26.29;100005.25;5049159;28;20078;-49
2022/04/04 10:13:48;;;;;;;8.95;4.40;;;;;;;18.25;26.44;99996.50;5048510;28;20047;-50
2022/04/04 10:16:16;;;;;;;4.78;3.70;;;;;;;17.12;27.76;99991.94;5049029;28;20544;-47
2022/04/04 10:18:46;;;;;;;5.30;3.85;;;;;;;18.20;26.86;99991.03;5049168;28;20039;-53
2022/04/04 10:21:12;;;;;;;5.28;4.07;;;;;;;17.97;26.70;99988.31;5049477;28;20056;-50
2022/04/04 10:23:40;;;;;;;5.20;3.92;;;;;;;17.27;27.60;99994.09;5048507;28;20021;-49
2022/04/04 10:26:07;;;;;;;5.20;4.20;;;;;;;17.12;27.64;99979.31;5049161;28;20508;-51
2022/04/04 10:28:38;;;;;;;5.55;4.03;;;;;;;17.85;26.94;99978.69;5049549;28;20464;-48
2022/04/04 10:31:16;;;;;;;6.55;4.10;;;;;;;17.17;28.70;99979.41;5049416;28;20028;-49
2022/04/04 10:33:42;;;;;;;6.18;4.45;;;;;;;17.18;27.93;99978.34;5049107;28;20037;-48
2022/04/04 10:36:10;;;;;;;5.00;4.13;;;;;;;18.36;27.45;99966.75;5049260;28;20060;-51
2022/04/04 10:38:44;;;;;;;5.40;4.13;;;;;;;17.98;27.53;99967.56;5048844;28;20517;-49
2022/04/04 10:41:10;;;;;;;5.28;4.00;;;;;;;17.42;27.63;99961.25;5048831;28;20035;-50
2022/04/04 10:43:43;;;;;;;4.80;3.95;;;;;;;17.47;28.15;99958.66;5048591;28;20025;-48
2022/04/04 10:46:14;;;;;;;6.22;4.00;;;;;;;17.62;28.38;99958.91;5048686;28;20025;-49
2022/04/04 10:48:42;;;;;;;6.20;4.50;;;;;;;17.05;29.00;99951.75;5048684;28;20025;-48
2022/04/04 10:51:31;;;;;;;4.28;3.88;;;;;;;17.27;28.97;99959.97;5049922;28;20506;-49
2022/04/04 10:54:10;;;;;;;6.22;4.38;;;;;;;18.17;26.73;99952.75;5050222;28;20138;-51
2022/04/04 10:56:40;;;;;;;5.80;4.15;;;;;;;17.58;27.08;99950.50;5051717;28;20195;-50
2022/04/04 10:59:15;;;;;;;6.80;4.20;;;;;;;17.18;27.90;99940.69;5050354;28;20122;-49
2022/04/04 11:01:46;;;;;;;5.35;3.80;;;;;;;18.26;26.66;99934.31;5052931;28;20035;-52
2022/04/04 11:04:26;;;;;;;5.55;3.78;;;;;;;16.56;29.31;99932.50;5051669;28;20079;-48
2022/04/04 11:09:56;;;;;;;5.88;3.97;;;;;;;17.36;28.67;99928.09;5052148;28;20077;-49
2022/04/04 11:12:24;;;;;;;5.15;4.18;;;;;;;16.85;28.68;99919.13;5052020;28;20032;-49
2022/04/04 11:14:55;;;;;;;5.25;3.97;;;;;;;16.59;29.18;99924.00;5052175;28;20066;-49
2022/04/04 11:17:40;;;;;;;5.57;4.30;;;;;;;16.96;28.19;99929.84;5051238;28;20403;-52
2022/04/04 11:20:21;;;;;;;5.80;4.30;;;;;;;17.38;27.40;99931.34;5049768;28;20028;-53
2022/04/04 11:22:52;;;;;;;5.68;4.25;;;;;;;16.70;28.87;99931.19;5051485;28;20040;-47
2022/04/04 11:25:20;;;;;;;5.93;4.30;;;;;;;16.68;28.51;99929.78;5052588;28;20100;-49
2022/04/04 11:27:48;;;;;;;5.38;4.18;;;;;;;17.30;27.55;99921.81;5049463;28;20392;-51
2022/04/04 11:30:16;;;;;;;7.50;4.90;;;;;;;17.00;28.38;99911.31;5051720;28;20543;-48
2022/04/04 11:32:42;;;;;;;5.20;4.20;;;;;;;16.73;29.16;99901.13;5052191;28;20505;-49
2022/04/04 11:35:09;;;;;;;7.10;4.63;;;;;;;18.09;27.42;99893.16;5051576;28;20052;-49
2022/04/04 11:37:49;;;;;;;5.97;4.38;;;;;;;18.35;26.62;99894.25;5052374;28;20351;-50